Time;durP1;ratioP1;P1;durP2;ratioP2;P2;SDS_P1;SDS_P2;PMS_P1;PMS_P2;Temp;Humidity;BMP_temperature;BMP_pressure;BME280_temperature;BME280_humidity;BME280_pressure;Samples;Min_cycle;Max_cycle;Signal;HPM_P1;HPM_P2
2022/09/21 00:01:26;;;;;;;0.00;0.00;;;;;;;;;;6244450;23;20004;-74
2022/09/21 00:03:54;;;;;;;0.00;0.00;;;;;;;;;;6246008;22;20027;-74
2022/09/21 00:06:20;;;;;;;0.00;0.00;;;;;;;;;;6245876;23;20443;-75
2022/09/21 00:08:47;;;;;;;0.22;0.22;;;;;;;;;;6245869;23;20031;-75
2022/09/21 00:11:19;;;;;;;0.00;0.00;;;;;;;;;;6245895;23;20379;-74
2022/09/21 00:13:46;;;;;;;0.00;0.00;;;;;;;;;;6245961;22;20004;-74
2022/09/21 00:16:13;;;;;;;0.00;0.00;;;;;;;;;;6245888;22;20007;-74
2022/09/21 00:18:40;;;;;;;0.00;0.00;;;;;;;;;;6245729;23;20004;-75
2022/09/21 00:21:10;;;;;;;0.00;0.00;;;;;;;;;;6244187;23;20004;-74
2022/09/21 00:23:37;;;;;;;0.17;0.17;;;;;;;;;;6245715;23;20078;-74
2022/09/21 00:26:04;;;;;;;0.00;0.00;;;;;;;;;;6244190;23;20000;-75
2022/09/21 00:28:30;;;;;;;0.00;0.00;;;;;;;;;;6246191;23;20007;-75
2022/09/21 00:31:01;;;;;;;0.10;0.05;;;;;;;;;;6244109;23;20000;-75
2022/09/21 00:33:27;;;;;;;0.10;0.10;;;;;;;;;;6245556;22;19996;-75
2022/09/21 00:35:53;;;;;;;0.00;0.00;;;;;;;;;;6243329;23;20004;-74
2022/09/21 00:38:20;;;;;;;0.00;0.00;;;;;;;;;;6243914;23;20004;-75
2022/09/21 00:40:46;;;;;;;0.00;0.00;;;;;;;;;;6244035;23;20077;-75
2022/09/21 00:43:14;;;;;;;0.10;0.10;;;;;;;;;;6243915;23;20087;-74
2022/09/21 00:45:40;;;;;;;0.60;0.60;;;;;;;;;;6244025;23;20007;-74
2022/09/21 00:48:07;;;;;;;0.00;0.00;;;;;;;;;;6244112;23;20007;-75
2022/09/21 00:50:34;;;;;;;0.00;0.00;;;;;;;;;;6245500;23;20078;-75
2022/09/21 00:53:00;;;;;;;0.00;0.00;;;;;;;;;;6245534;23;20000;-74
2022/09/21 00:55:27;;;;;;;0.00;0.00;;;;;;;;;;6245712;23;20039;-74
2022/09/21 00:57:56;;;;;;;0.00;0.00;;;;;;;;;;6243470;22;20012;-75
2022/09/21 01:00:23;;;;;;;0.00;0.00;;;;;;;;;;6243929;23;20087;-74
2022/09/21 01:02:50;;;;;;;0.63;0.52;;;;;;;;;;6243878;23;20005;-74
2022/09/21 01:05:16;;;;;;;1.92;1.75;;;;;;;;;;6243865;23;20012;-74
2022/09/21 01:07:46;;;;;;;4.80;4.22;;;;;;;;;;6245428;23;20075;-74
2022/09/21 01:10:15;;;;;;;0.00;0.00;;;;;;;;;;6245373;23;20050;-75
2022/09/21 01:12:41;;;;;;;0.40;0.40;;;;;;;;;;6245104;22;20008;-74
2022/09/21 01:15:14;;;;;;;0.05;0.05;;;;;;;;;;6244499;23;20026;-74
2022/09/21 01:17:40;;;;;;;0.00;0.00;;;;;;;;;;6243765;23;20008;-75
2022/09/21 01:20:10;;;;;;;0.63;0.63;;;;;;;;;;6246472;23;20137;-75
2022/09/21 01:22:46;;;;;;;0.00;0.00;;;;;;;;;;6245469;23;20004;-74
2022/09/21 01:25:38;;;;;;;0.22;0.22;;;;;;;;;;6245834;23;20004;-74
2022/09/21 01:28:24;;;;;;;0.85;0.80;;;;;;;;;;6189500;23;20472;-74
2022/09/21 01:30:52;;;;;;;1.40;1.10;;;;;;;;;;6247356;22;19996;-76
2022/09/21 01:33:26;;;;;;;0.20;0.20;;;;;;;;;;6246783;22;19995;-75
2022/09/21 01:35:57;;;;;;;0.20;0.20;;;;;;;;;;6247452;22;20011;-75
2022/09/21 01:38:33;;;;;;;0.20;0.13;;;;;;;;;;6246037;23;20059;-75
2022/09/21 01:41:01;;;;;;;1.08;0.55;;;;;;;;;;6247882;22;20035;-74
2022/09/21 01:43:33;;;;;;;0.00;0.00;;;;;;;;;;6246517;23;20028;-74
2022/09/21 01:46:00;;;;;;;0.00;0.00;;;;;;;;;;6247581;23;19996;-76
2022/09/21 01:48:29;;;;;;;0.00;0.00;;;;;;;;;;6245869;23;20088;-75
2022/09/21 01:50:57;;;;;;;0.00;0.00;;;;;;;;;;6244663;23;20000;-75
2022/09/21 01:53:28;;;;;;;1.65;1.65;;;;;;;;;;6245649;23;20004;-75
2022/09/21 01:56:30;;;;;;;1.48;1.35;;;;;;;;;;6246128;23;20000;-75
2022/09/21 01:59:11;;;;;;;0.00;0.00;;;;;;;;;;6099066;23;20129;-75
2022/09/21 02:01:42;;;;;;;2.75;2.63;;;;;;;;;;6234897;22;20008;-76
2022/09/21 02:04:09;;;;;;;11.50;2.83;;;;;;;;;;6246837;22;20000;-76
2022/09/21 02:06:38;;;;;;;0.00;0.00;;;;;;;;;;6243368;23;20075;-76
2022/09/21 02:09:05;;;;;;;0.00;0.00;;;;;;;;;;6247436;22;20368;-78
2022/09/21 02:11:31;;;;;;;0.00;0.00;;;;;;;;;;6246147;23;20103;-77
2022/09/21 02:13:57;;;;;;;0.93;0.93;;;;;;;;;;6246412;23;20008;-76
2022/09/21 02:16:33;;;;;;;28.08;0.70;;;;;;;;;;6246478;22;20055;-77
2022/09/21 02:19:10;;;;;;;1.63;1.52;;;;;;;;;;6244126;23;20005;-77
2022/09/21 02:21:38;;;;;;;0.80;0.80;;;;;;;;;;6246285;22;20000;-75
2022/09/21 02:24:05;;;;;;;1.30;0.80;;;;;;;;;;6245667;22;20004;-79
2022/09/21 02:26:55;;;;;;;0.68;0.52;;;;;;;;;;6246037;22;20000;-80
2022/09/21 02:29:32;;;;;;;1.17;1.10;;;;;;;;;;6246627;22;20071;-77
2022/09/21 02:32:06;;;;;;;2.53;1.98;;;;;;;;;;6246311;22;20004;-77
2022/09/21 02:34:35;;;;;;;0.70;0.70;;;;;;;;;;6246586;22;20052;-80
2022/09/21 02:37:12;;;;;;;0.08;0.08;;;;;;;;;;6245222;23;20062;-75
2022/09/21 02:39:42;;;;;;;1.50;1.45;;;;;;;;;;6245174;22;20004;-76
2022/09/21 02:42:11;;;;;;;0.00;0.00;;;;;;;;;;6245639;22;19996;-76
2022/09/21 02:44:47;;;;;;;0.00;0.00;;;;;;;;;;6245865;22;20050;-77
2022/09/21 02:47:19;;;;;;;0.43;0.43;;;;;;;;;;6243314;23;20004;-77
2022/09/21 02:49:50;;;;;;;0.68;0.68;;;;;;;;;;6244153;23;20444;-78
2022/09/21 02:52:17;;;;;;;1.17;1.17;;;;;;;;;;6241497;23;20008;-77
2022/09/21 02:54:46;;;;;;;2.05;1.98;;;;;;;;;;6242514;23;20004;-77
2022/09/21 02:57:13;;;;;;;2.17;2.10;;;;;;;;;;6244297;22;20000;-79
2022/09/21 02:59:40;;;;;;;0.00;0.00;;;;;;;;;;6243216;22;20012;-79
2022/09/21 03:02:06;;;;;;;0.35;0.35;;;;;;;;;;6242460;23;20000;-76
2022/09/21 03:04:33;;;;;;;0.00;0.00;;;;;;;;;;6242996;22;20000;-76
2022/09/21 03:06:59;;;;;;;1.58;1.38;;;;;;;;;;6241523;23;20443;-77
2022/09/21 03:09:26;;;;;;;6.45;4.70;;;;;;;;;;6242018;23;20087;-77
2022/09/21 03:11:52;;;;;;;0.57;0.35;;;;;;;;;;6241495;23;20004;-78
2022/09/21 03:14:19;;;;;;;1.13;1.08;;;;;;;;;;6243185;22;20008;-77
2022/09/21 03:16:45;;;;;;;0.93;0.85;;;;;;;;;;6240684;23;20020;-82
2022/09/21 03:19:12;;;;;;;12.98;2.53;;;;;;;;;;6239857;23;20012;-80
2022/09/21 03:21:38;;;;;;;2.58;2.38;;;;;;;;;;6242841;23;20004;-84
2022/09/21 03:24:05;;;;;;;0.00;0.00;;;;;;;;;;6247542;22;20067;-85
2022/09/21 03:26:32;;;;;;;4.82;2.22;;;;;;;;;;6246166;22;20070;-84
2022/09/21 03:28:58;;;;;;;12.55;2.75;;;;;;;;;;6257921;23;20012;-80
2022/09/21 03:31:25;;;;;;;2.60;2.40;;;;;;;;;;6246154;22;20008;-80
2022/09/21 03:33:51;;;;;;;3.88;3.58;;;;;;;;;;6239976;23;20436;-76
2022/09/21 03:36:18;;;;;;;10.45;5.50;;;;;;;;;;6242796;23;20039;-75
2022/09/21 03:38:44;;;;;;;4.13;3.85;;;;;;;;;;6241283;23;20008;-79
2022/09/21 03:41:12;;;;;;;0.10;0.10;;;;;;;;;;6240212;23;20000;-80
2022/09/21 03:43:39;;;;;;;1.45;1.35;;;;;;;;;;6245428;22;20023;-80
2022/09/21 03:46:05;;;;;;;10.48;2.85;;;;;;;;;;6244632;23;20071;-79
2022/09/21 03:48:31;;;;;;;1.13;1.13;;;;;;;;;;6242873;23;20082;-79
2022/09/21 03:50:58;;;;;;;0.30;0.30;;;;;;;;;;6242480;23;20071;-80
2022/09/21 03:53:24;;;;;;;2.38;1.13;;;;;;;;;;6241690;23;20376;-82
2022/09/21 03:55:51;;;;;;;4.15;1.38;;;;;;;;;;6241550;23;20000;-81
2022/09/21 03:58:17;;;;;;;4.90;2.38;;;;;;;;;;6247050;22;20103;-84
2022/09/21 04:00:44;;;;;;;7.18;4.32;;;;;;;;;;6257958;23;20490;-84
2022/09/21 04:03:10;;;;;;;10.60;5.18;;;;;;;;;;6257530;22;20002;-84
2022/09/21 04:05:38;;;;;;;5.95;2.28;;;;;;;;;;6251312;23;20020;-78
2022/09/21 04:08:05;;;;;;;3.67;1.83;;;;;;;;;;6246987;22;20004;-78
2022/09/21 04:10:32;;;;;;;8.43;5.88;;;;;;;;;;6248507;22;20113;-78
2022/09/21 04:13:00;;;;;;;1.58;1.30;;;;;;;;;;6248651;23;20012;-81
2022/09/21 04:15:26;;;;;;;6.13;3.78;;;;;;;;;;6246545;23;20019;-77
2022/09/21 04:17:53;;;;;;;2.25;0.85;;;;;;;;;;6242267;23;20026;-78
2022/09/21 04:20:24;;;;;;;4.57;2.75;;;;;;;;;;6243112;23;20028;-80
2022/09/21 04:22:50;;;;;;;0.50;0.47;;;;;;;;;;6243723;23;20004;-77
2022/09/21 04:25:17;;;;;;;2.17;2.08;;;;;;;;;;6244013;22;20000;-77
2022/09/21 04:27:43;;;;;;;5.30;1.95;;;;;;;;;;6241580;23;20328;-75
2022/09/21 04:30:11;;;;;;;2.00;1.75;;;;;;;;;;6241809;23;20062;-76
2022/09/21 04:32:37;;;;;;;5.55;1.70;;;;;;;;;;6242175;23;20432;-77
2022/09/21 04:35:04;;;;;;;4.28;2.22;;;;;;;;;;6242177;23;20526;-77
2022/09/21 04:37:30;;;;;;;1.25;0.88;;;;;;;;;;6244126;23;20076;-77
2022/09/21 04:39:56;;;;;;;2.65;2.17;;;;;;;;;;6242497;23;20004;-78
2022/09/21 04:42:23;;;;;;;1.17;0.88;;;;;;;;;;6242040;23;20066;-75
2022/09/21 04:44:50;;;;;;;1.20;0.80;;;;;;;;;;6241378;23;20031;-75
2022/09/21 04:47:16;;;;;;;0.80;0.80;;;;;;;;;;6243596;22;20022;-75
2022/09/21 04:49:43;;;;;;;0.22;0.22;;;;;;;;;;6244249;22;20004;-76
2022/09/21 04:52:09;;;;;;;0.00;0.00;;;;;;;;;;6241967;23;20012;-77
2022/09/21 04:54:36;;;;;;;0.00;0.00;;;;;;;;;;6243090;22;20010;-76
2022/09/21 04:57:02;;;;;;;0.57;0.50;;;;;;;;;;6243102;23;20027;-78
2022/09/21 04:59:29;;;;;;;3.83;2.03;;;;;;;;;;6216544;23;20019;-77
2022/09/21 05:01:55;;;;;;;45.97;33.35;;;;;;;;;;6241435;23;20499;-77
2022/09/21 05:04:21;;;;;;;1.35;1.25;;;;;;;;;;6239325;23;20487;-76
2022/09/21 05:06:48;;;;;;;0.60;0.60;;;;;;;;;;6241684;23;20028;-77
2022/09/21 05:11:59;;;;;;;0.32;0.32;;;;;;;;;;6244335;23;20131;-77
2022/09/21 05:14:27;;;;;;;0.00;0.00;;;;;;;;;;6242665;23;20004;-80
2022/09/21 05:16:53;;;;;;;0.20;0.20;;;;;;;;;;6242392;22;20012;-77
2022/09/21 05:19:20;;;;;;;0.00;0.00;;;;;;;;;;6241650;23;20029;-79
2022/09/21 05:21:46;;;;;;;0.00;0.00;;;;;;;;;;6241028;22;20000;-79
2022/09/21 05:24:12;;;;;;;0.00;0.00;;;;;;;;;;6239402;23;20440;-79
2022/09/21 05:26:39;;;;;;;0.40;0.40;;;;;;;;;;6241394;23;20004;-76
2022/09/21 05:29:05;;;;;;;0.00;0.00;;;;;;;;;;6241103;23;20016;-76
2022/09/21 05:31:47;;;;;;;0.45;0.45;;;;;;;;;;6241934;23;20371;-76
2022/09/21 05:34:17;;;;;;;4.85;4.28;;;;;;;;;;6241119;23;20035;-76
2022/09/21 05:36:57;;;;;;;1.27;1.27;;;;;;;;;;6241510;23;20008;-76
2022/09/21 05:39:23;;;;;;;4.78;4.60;;;;;;;;;;6240186;23;20036;-75
2022/09/21 05:41:50;;;;;;;1.38;1.38;;;;;;;;;;6240442;23;20118;-74
2022/09/21 05:44:20;;;;;;;17.63;3.95;;;;;;;;;;6242211;22;20000;-74
2022/09/21 05:47:04;;;;;;;0.55;0.38;;;;;;;;;;6241948;22;20004;-75
2022/09/21 05:49:44;;;;;;;6.38;2.83;;;;;;;;;;6242049;23;20079;-75
2022/09/21 05:52:23;;;;;;;2.85;1.33;;;;;;;;;;6241735;22;20058;-77
2022/09/21 05:54:56;;;;;;;7.50;1.80;;;;;;;;;;6242182;23;20084;-76
2022/09/21 05:57:25;;;;;;;5.65;5.28;;;;;;;;;;6240620;22;20004;-76
2022/09/21 05:59:52;;;;;;;1.55;1.35;;;;;;;;;;6242091;23;20074;-77
2022/09/21 06:02:21;;;;;;;7.30;6.80;;;;;;;;;;6240860;23;20058;-77
2022/09/21 06:04:50;;;;;;;1.75;0.35;;;;;;;;;;6240601;23;20431;-76
2022/09/21 06:07:23;;;;;;;0.35;0.35;;;;;;;;;;6242712;23;20004;-78
2022/09/21 06:09:52;;;;;;;0.10;0.10;;;;;;;;;;6244673;23;20011;-77
2022/09/21 06:12:21;;;;;;;16.58;4.28;;;;;;;;;;6243934;22;20379;-76
2022/09/21 06:14:48;;;;;;;0.15;0.15;;;;;;;;;;6240312;23;20019;-77
2022/09/21 06:17:17;;;;;;;0.08;0.08;;;;;;;;;;6243489;23;20004;-78
2022/09/21 06:19:44;;;;;;;0.22;0.22;;;;;;;;;;6241903;23;20015;-77
2022/09/21 06:22:11;;;;;;;1.35;0.98;;;;;;;;;;6242989;22;20448;-76
2022/09/21 06:24:37;;;;;;;4.93;4.43;;;;;;;;;;6241472;23;20007;-75
2022/09/21 06:27:03;;;;;;;1.55;0.50;;;;;;;;;;6243807;23;20000;-77
2022/09/21 06:29:30;;;;;;;1.77;1.35;;;;;;;;;;6243562;22;20008;-77
2022/09/21 06:31:57;;;;;;;3.40;3.30;;;;;;;;;;6244725;23;20024;-76
2022/09/21 06:34:23;;;;;;;0.22;0.20;;;;;;;;;;6244040;22;20008;-75
2022/09/21 06:36:50;;;;;;;0.00;0.00;;;;;;;;;;6243337;23;20014;-76
2022/09/21 06:39:17;;;;;;;2.63;2.38;;;;;;;;;;6241715;23;20069;-76
2022/09/21 06:41:43;;;;;;;3.42;2.30;;;;;;;;;;6242372;23;20313;-76
2022/09/21 06:44:09;;;;;;;0.35;0.35;;;;;;;;;;6242778;23;20011;-75
2022/09/21 06:46:36;;;;;;;0.00;0.00;;;;;;;;;;6244571;23;20473;-77
2022/09/21 06:49:02;;;;;;;0.00;0.00;;;;;;;;;;6244252;23;20028;-75
2022/09/21 06:51:29;;;;;;;0.30;0.20;;;;;;;;;;6241080;23;20016;-74
2022/09/21 06:53:56;;;;;;;9.23;1.15;;;;;;;;;;6243812;23;20008;-74
2022/09/21 06:56:23;;;;;;;1.38;1.27;;;;;;;;;;6241658;23;20020;-74
2022/09/21 06:58:50;;;;;;;0.03;0.03;;;;;;;;;;6240729;22;20031;-73
2022/09/21 07:01:17;;;;;;;0.38;0.38;;;;;;;;;;6241339;23;20031;-74
2022/09/21 07:03:43;;;;;;;0.00;0.00;;;;;;;;;;6239685;23;20007;-75
2022/09/21 07:06:12;;;;;;;0.55;0.43;;;;;;;;;;6242978;22;20428;-74
2022/09/21 07:08:39;;;;;;;0.15;0.15;;;;;;;;;;6239857;23;20011;-75
2022/09/21 07:11:06;;;;;;;0.70;0.70;;;;;;;;;;6241740;23;20094;-75
2022/09/21 07:13:32;;;;;;;0.40;0.40;;;;;;;;;;6244219;22;20329;-75
2022/09/21 07:16:02;;;;;;;0.55;0.55;;;;;;;;;;6241232;23;20007;-76
2022/09/21 07:18:29;;;;;;;0.00;0.00;;;;;;;;;;6242988;22;20346;-73
2022/09/21 07:20:55;;;;;;;53.85;7.13;;;;;;;;;;6241423;23;20008;-76
2022/09/21 07:23:21;;;;;;;1.33;1.25;;;;;;;;;;6242264;23;20001;-75
2022/09/21 07:25:49;;;;;;;0.13;0.13;;;;;;;;;;6242420;23;20000;-75
2022/09/21 07:28:16;;;;;;;1.45;1.08;;;;;;;;;;6239241;23;20015;-76
2022/09/21 07:30:42;;;;;;;1.17;1.08;;;;;;;;;;6238316;23;20107;-75
2022/09/21 07:33:09;;;;;;;0.15;0.15;;;;;;;;;;6241895;23;20079;-75
2022/09/21 07:35:35;;;;;;;1.08;0.98;;;;;;;;;;6238854;23;20007;-76
2022/09/21 07:38:03;;;;;;;1.25;1.17;;;;;;;;;;6240739;23;20016;-74
2022/09/21 07:40:29;;;;;;;0.68;0.68;;;;;;;;;;6241386;23;20484;-75
2022/09/21 07:43:01;;;;;;;0.00;0.00;;;;;;;;;;6242053;23;20008;-74
2022/09/21 07:45:27;;;;;;;0.00;0.00;;;;;;;;;;6243344;22;20076;-75
2022/09/21 07:47:55;;;;;;;0.10;0.10;;;;;;;;;;6243645;22;20008;-75
2022/09/21 07:50:21;;;;;;;0.08;0.00;;;;;;;;;;6241388;23;20075;-77
2022/09/21 07:52:48;;;;;;;1.73;1.63;;;;;;;;;;6242324;23;20508;-76
2022/09/21 07:55:14;;;;;;;24.77;22.90;;;;;;;;;;6242823;23;20028;-76
2022/09/21 08:00:28;;;;;;;0.10;0.10;;;;;;;;;;6213108;23;20071;-77
2022/09/21 08:02:54;;;;;;;0.00;0.00;;;;;;;;;;6212422;23;20005;-78
2022/09/21 08:05:20;;;;;;;1.20;0.80;;;;;;;;;;6212943;23;20075;-76
2022/09/21 08:07:47;;;;;;;1.38;1.38;;;;;;;;;;6212652;23;20011;-78
2022/09/21 08:10:13;;;;;;;0.50;0.50;;;;;;;;;;6211640;23;20035;-76
2022/09/21 08:12:40;;;;;;;0.63;0.63;;;;;;;;;;6213833;23;20507;-76
2022/09/21 08:15:07;;;;;;;0.10;0.10;;;;;;;;;;6212336;23;20008;-77
2022/09/21 08:17:33;;;;;;;0.10;0.10;;;;;;;;;;6210303;23;20069;-76
2022/09/21 08:20:00;;;;;;;2.83;2.65;;;;;;;;;;6211821;23;20520;-74
2022/09/21 08:22:29;;;;;;;0.65;0.65;;;;;;;;;;6209582;23;20020;-74
2022/09/21 08:24:56;;;;;;;0.00;0.00;;;;;;;;;;6210680;23;20011;-74
2022/09/21 08:27:24;;;;;;;0.00;0.00;;;;;;;;;;6207733;23;20008;-73
2022/09/21 08:29:51;;;;;;;5.25;0.95;;;;;;;;;;6208728;23;20524;-74
2022/09/21 08:32:17;;;;;;;0.10;0.10;;;;;;;;;;6210785;23;20487;-79
2022/09/21 08:34:48;;;;;;;0.98;0.80;;;;;;;;;;6210494;23;20540;-76
2022/09/21 08:37:15;;;;;;;0.00;0.00;;;;;;;;;;6211441;23;20027;-74
2022/09/21 08:39:41;;;;;;;3.47;2.97;;;;;;;;;;6208988;23;20083;-76
2022/09/21 08:42:08;;;;;;;8.13;7.78;;;;;;;;;;6210122;23;20700;-76
2022/09/21 08:44:40;;;;;;;0.00;0.00;;;;;;;;;;6209552;23;20302;-75
2022/09/21 08:47:18;;;;;;;0.22;0.17;;;;;;;;;;6210032;23;20024;-77
2022/09/21 08:49:47;;;;;;;0.17;0.15;;;;;;;;;;6211763;23;20008;-75
2022/09/21 08:52:14;;;;;;;0.00;0.00;;;;;;;;;;6207368;23;20008;-77
2022/09/21 08:54:41;;;;;;;0.00;0.00;;;;;;;;;;6209858;23;20032;-76
2022/09/21 08:57:12;;;;;;;0.85;0.57;;;;;;;;;;6208958;23;20032;-76
2022/09/21 08:59:42;;;;;;;0.00;0.00;;;;;;;;;;6230468;23;20023;-74
2022/09/21 09:02:27;;;;;;;3.17;2.97;;;;;;;;;;6236884;23;20016;-75
2022/09/21 09:05:14;;;;;;;0.00;0.00;;;;;;;;;;6238691;23;20072;-74
2022/09/21 09:07:51;;;;;;;1.08;1.08;;;;;;;;;;6220150;23;20088;-74
2022/09/21 09:10:17;;;;;;;0.00;0.00;;;;;;;;;;6240590;22;20011;-75
2022/09/21 09:13:02;;;;;;;3.35;3.20;;;;;;;;;;6238362;23;20461;-74
2022/09/21 09:15:28;;;;;;;0.00;0.00;;;;;;;;;;6236980;23;20090;-74
2022/09/21 09:18:02;;;;;;;8.93;5.18;;;;;;;;;;6240769;23;20083;-75
2022/09/21 09:20:35;;;;;;;0.25;0.10;;;;;;;;;;6240389;23;20008;-76
2022/09/21 09:23:10;;;;;;;0.52;0.52;;;;;;;;;;6240757;23;20407;-76
2022/09/21 09:25:41;;;;;;;7.47;3.85;;;;;;;;;;6240619;23;20337;-78
2022/09/21 09:28:17;;;;;;;6.22;5.85;;;;;;;;;;6241524;23;20000;-77
2022/09/21 09:30:44;;;;;;;0.70;0.70;;;;;;;;;;6239742;22;20309;-78
2022/09/21 09:33:18;;;;;;;0.10;0.10;;;;;;;;;;6240778;22;20008;-77
2022/09/21 09:36:10;;;;;;;10.40;5.18;;;;;;;;;;6241329;23;20071;-76
2022/09/21 09:38:36;;;;;;;1.05;1.05;;;;;;;;;;6236628;22;20069;-75
2022/09/21 09:41:09;;;;;;;0.32;0.32;;;;;;;;;;6239906;23;20008;-76
2022/09/21 09:43:47;;;;;;;0.00;0.00;;;;;;;;;;6245286;23;20316;-78
2022/09/21 09:46:19;;;;;;;0.20;0.20;;;;;;;;;;6245117;22;20389;-79
2022/09/21 09:49:04;;;;;;;0.50;0.50;;;;;;;;;;6243502;23;20004;-79
2022/09/21 09:51:34;;;;;;;0.00;0.00;;;;;;;;;;6242495;23;20013;-79
2022/09/21 09:54:00;;;;;;;0.05;0.05;;;;;;;;;;6243800;23;20072;-78
2022/09/21 09:56:27;;;;;;;0.00;0.00;;;;;;;;;;6242950;23;20092;-80
2022/09/21 09:58:58;;;;;;;0.13;0.13;;;;;;;;;;6238610;22;20020;-76
2022/09/21 10:01:37;;;;;;;0.55;0.35;;;;;;;;;;6243053;23;20079;-80
2022/09/21 10:04:08;;;;;;;7.45;6.93;;;;;;;;;;6245663;22;20003;-78
2022/09/21 10:06:35;;;;;;;0.30;0.30;;;;;;;;;;6243869;22;20008;-77
2022/09/21 10:09:01;;;;;;;1.15;1.15;;;;;;;;;;6244322;22;20007;-77
2022/09/21 10:11:36;;;;;;;3.20;1.35;;;;;;;;;;6245027;22;20071;-78
2022/09/21 10:14:14;;;;;;;0.00;0.00;;;;;;;;;;6243693;22;20004;-76
2022/09/21 10:16:41;;;;;;;0.00;0.00;;;;;;;;;;6244605;23;20071;-78
2022/09/21 10:19:14;;;;;;;0.00;0.00;;;;;;;;;;6244528;22;20012;-76
2022/09/21 10:21:45;;;;;;;0.30;0.10;;;;;;;;;;6245404;23;20004;-77
2022/09/21 10:24:32;;;;;;;0.25;0.25;;;;;;;;;;6242510;23;20012;-81
2022/09/21 10:27:28;;;;;;;0.00;0.00;;;;;;;;;;6244328;22;20428;-80
2022/09/21 10:29:54;;;;;;;0.30;0.20;;;;;;;;;;6210600;23;20066;-77
2022/09/21 10:32:22;;;;;;;0.00;0.00;;;;;;;;;;6245022;22;20010;-77
2022/09/21 10:35:12;;;;;;;0.20;0.20;;;;;;;;;;6244023;23;20388;-77
2022/09/21 10:37:40;;;;;;;0.00;0.00;;;;;;;;;;6242288;23;20387;-77
2022/09/21 10:40:22;;;;;;;0.40;0.40;;;;;;;;;;6244475;22;20004;-79
2022/09/21 10:42:49;;;;;;;0.00;0.00;;;;;;;;;;6244228;23;20007;-76
2022/09/21 10:45:20;;;;;;;3.30;2.38;;;;;;;;;;6242081;23;20336;-76
2022/09/21 10:48:07;;;;;;;0.10;0.10;;;;;;;;;;6241912;23;20322;-74
2022/09/21 10:50:39;;;;;;;1.95;1.85;;;;;;;;;;6242421;23;20401;-74
2022/09/21 10:53:08;;;;;;;5.70;5.18;;;;;;;;;;6242852;23;20019;-74
2022/09/21 10:55:58;;;;;;;0.35;0.35;;;;;;;;;;6243967;23;20032;-74
2022/09/21 10:58:25;;;;;;;0.00;0.00;;;;;;;;;;6227646;22;20020;-74
2022/09/21 11:00:52;;;;;;;0.00;0.00;;;;;;;;;;6242135;23;20031;-74
2022/09/21 11:03:25;;;;;;;0.00;0.00;;;;;;;;;;6243695;22;20062;-75
2022/09/21 11:05:52;;;;;;;0.00;0.00;;;;;;;;;;6242379;22;20001;-75
2022/09/21 11:08:26;;;;;;;0.00;0.00;;;;;;;;;;6241139;23;20004;-75
2022/09/21 11:11:08;;;;;;;2.20;1.27;;;;;;;;;;6244165;23;20075;-75
2022/09/21 11:13:47;;;;;;;0.30;0.30;;;;;;;;;;6241091;23;20008;-75
2022/09/21 11:16:13;;;;;;;9.85;1.98;;;;;;;;;;6244060;23;20069;-76
2022/09/21 11:18:44;;;;;;;42.40;26.00;;;;;;;;;;6242198;23;20052;-75
2022/09/21 11:21:17;;;;;;;0.40;0.40;;;;;;;;;;6243128;23;20055;-76
2022/09/21 11:23:52;;;;;;;0.90;0.75;;;;;;;;;;6245733;22;20008;-76
2022/09/21 11:26:48;;;;;;;0.00;0.00;;;;;;;;;;6244808;22;20008;-78
2022/09/21 11:29:18;;;;;;;0.38;0.38;;;;;;;;;;6136299;22;20018;-77
2022/09/21 11:32:03;;;;;;;0.00;0.00;;;;;;;;;;6243444;22;20004;-76
2022/09/21 11:34:30;;;;;;;0.45;0.45;;;;;;;;;;6241047;23;20011;-77
2022/09/21 11:37:18;;;;;;;0.10;0.10;;;;;;;;;;6242660;23;20012;-76
2022/09/21 11:39:50;;;;;;;0.05;0.05;;;;;;;;;;6243012;23;20328;-76
2022/09/21 11:42:29;;;;;;;3.45;3.30;;;;;;;;;;6242910;22;20076;-75
2022/09/21 11:44:58;;;;;;;3.92;3.72;;;;;;;;;;6242592;23;20007;-78
2022/09/21 11:47:24;;;;;;;2.13;2.03;;;;;;;;;;6245474;22;19996;-79
2022/09/21 11:50:17;;;;;;;0.00;0.00;;;;;;;;;;6245946;23;20083;-82
2022/09/21 11:53:07;;;;;;;0.80;0.77;;;;;;;;;;6186899;23;20451;-81
2022/09/21 11:55:43;;;;;;;0.00;0.00;;;;;;;;;;6226922;23;20023;-80
2022/09/21 11:58:17;;;;;;;1.40;1.35;;;;;;;;;;6240105;22;20016;-78
2022/09/21 12:00:56;;;;;;;0.00;0.00;;;;;;;;;;6243604;23;20082;-79
2022/09/21 12:03:28;;;;;;;0.00;0.00;;;;;;;;;;6242287;23;20031;-77
2022/09/21 12:06:15;;;;;;;0.20;0.20;;;;;;;;;;6242742;23;20094;-77
2022/09/21 12:08:55;;;;;;;7.05;2.42;;;;;;;;;;6243127;23;20066;-81
2022/09/21 12:11:33;;;;;;;0.00;0.00;;;;;;;;;;6244418;22;20079;-82
2022/09/21 12:14:03;;;;;;;0.52;0.52;;;;;;;;;;6243247;23;20411;-83
2022/09/21 12:16:32;;;;;;;0.00;0.00;;;;;;;;;;6244118;23;20058;-82
2022/09/21 12:18:59;;;;;;;0.00;0.00;;;;;;;;;;6244778;23;20478;-82
2022/09/21 12:21:30;;;;;;;0.10;0.10;;;;;;;;;;6251063;22;20424;-82
2022/09/21 12:24:02;;;;;;;0.00;0.00;;;;;;;;;;6242982;23;20019;-81
2022/09/21 12:26:38;;;;;;;0.00;0.00;;;;;;;;;;6243244;22;20349;-81
2022/09/21 12:29:10;;;;;;;3.42;3.10;;;;;;;;;;6243426;23;20516;-81
2022/09/21 12:32:02;;;;;;;0.82;0.82;;;;;;;;;;6244048;23;20008;-81
2022/09/21 12:34:40;;;;;;;0.20;0.20;;;;;;;;;;6240388;23;20004;-81
2022/09/21 12:37:09;;;;;;;0.55;0.47;;;;;;;;;;6258276;23;20008;-83
2022/09/21 12:39:42;;;;;;;1.67;0.32;;;;;;;;;;6250267;22;20004;-82
2022/09/21 12:42:27;;;;;;;6.05;3.58;;;;;;;;;;6243044;23;20351;-81
2022/09/21 12:45:03;;;;;;;0.10;0.10;;;;;;;;;;6244519;22;20017;-82
2022/09/21 12:47:52;;;;;;;0.20;0.20;;;;;;;;;;6243529;23;20062;-81
2022/09/21 12:50:20;;;;;;;3.95;3.40;;;;;;;;;;6244109;23;20011;-80
2022/09/21 12:52:46;;;;;;;0.38;0.35;;;;;;;;;;6245712;22;20205;-82
2022/09/21 12:55:31;;;;;;;2.90;0.68;;;;;;;;;;6244967;22;20003;-82
2022/09/21 12:58:06;;;;;;;0.57;0.50;;;;;;;;;;6245010;22;20483;-83
2022/09/21 13:00:49;;;;;;;0.00;0.00;;;;;;;;;;6242442;23;20058;-82
2022/09/21 13:03:38;;;;;;;0.10;0.10;;;;;;;;;;6244485;22;20027;-82
2022/09/21 13:06:11;;;;;;;0.50;0.40;;;;;;;;;;6242786;23;20027;-82
2022/09/21 13:08:47;;;;;;;0.00;0.00;;;;;;;;;;6243870;23;20020;-82
2022/09/21 13:11:20;;;;;;;0.00;0.00;;;;;;;;;;6250851;22;20011;-82
2022/09/21 13:13:52;;;;;;;0.00;0.00;;;;;;;;;;6257706;22;20000;-81
2022/09/21 13:16:32;;;;;;;0.00;0.00;;;;;;;;;;6251487;22;20412;-81
2022/09/21 13:19:02;;;;;;;3.35;0.93;;;;;;;;;;6259633;23;19989;-81
2022/09/21 13:21:29;;;;;;;1.10;0.93;;;;;;;;;;6259528;23;20016;-82
2022/09/21 13:23:59;;;;;;;0.10;0.10;;;;;;;;;;6265424;23;20011;-82
2022/09/21 13:26:31;;;;;;;6.95;3.97;;;;;;;;;;6267456;22;20000;-82
2022/09/21 13:28:57;;;;;;;11.35;6.07;;;;;;;;;;6254643;22;20006;-84
2022/09/21 13:31:39;;;;;;;1.52;1.48;;;;;;;;;;6253196;23;20024;-82
2022/09/21 13:34:16;;;;;;;4.93;4.45;;;;;;;;;;6257641;23;20332;-84
2022/09/21 13:36:43;;;;;;;0.90;0.70;;;;;;;;;;6261441;23;20012;-82
2022/09/21 13:39:09;;;;;;;3.90;1.85;;;;;;;;;;6255720;23;20028;-81
2022/09/21 13:41:36;;;;;;;4.43;3.95;;;;;;;;;;6254495;23;20035;-81
2022/09/21 13:44:17;;;;;;;234.80;29.42;;;;;;;;;;6260922;23;19996;-83
2022/09/21 13:46:49;;;;;;;1.30;0.65;;;;;;;;;;6255873;23;20004;-82
2022/09/21 13:49:15;;;;;;;19.92;5.50;;;;;;;;;;6257228;22;20012;-83
2022/09/21 13:52:02;;;;;;;13.30;5.63;;;;;;;;;;6254359;22;20004;-84
2022/09/21 13:54:45;;;;;;;3.08;2.05;;;;;;;;;;6264135;22;20002;-83
2022/09/21 13:57:17;;;;;;;1.45;1.45;;;;;;;;;;6258897;22;20011;-85
2022/09/21 13:59:45;;;;;;;11.98;5.38;;;;;;;;;;6254533;23;20016;-83
2022/09/21 14:02:33;;;;;;;6.22;3.30;;;;;;;;;;6253797;23;20321;-84
2022/09/21 14:05:23;;;;;;;0.60;0.60;;;;;;;;;;6250796;23;20000;-84
2022/09/21 14:08:06;;;;;;;10.30;8.30;;;;;;;;;;6233278;23;20035;-83
2022/09/21 14:10:35;;;;;;;5.50;3.47;;;;;;;;;;6247044;22;20011;-82
2022/09/21 14:13:02;;;;;;;2.22;1.88;;;;;;;;;;6247959;22;20008;-84
2022/09/21 14:15:39;;;;;;;5.15;2.97;;;;;;;;;;6249837;23;20455;-83
2022/09/21 14:18:25;;;;;;;4.13;2.28;;;;;;;;;;6264360;22;20015;-83
2022/09/21 14:21:16;;;;;;;1.75;1.40;;;;;;;;;;6239398;22;20013;-83
2022/09/21 14:24:03;;;;;;;8.90;3.20;;;;;;;;;;6258948;22;20075;-83
2022/09/21 14:26:34;;;;;;;0.32;0.32;;;;;;;;;;6261935;23;20030;-84
2022/09/21 14:29:16;;;;;;;3.40;1.90;;;;;;;;;;6260042;23;20026;-82
2022/09/21 14:31:43;;;;;;;1.33;1.27;;;;;;;;;;6264359;23;20000;-82
2022/09/21 14:34:16;;;;;;;0.00;0.00;;;;;;;;;;6255520;23;20038;-82
2022/09/21 14:36:44;;;;;;;0.25;0.25;;;;;;;;;;6258676;23;20000;-81
2022/09/21 14:39:19;;;;;;;9.73;3.03;;;;;;;;;;6255841;22;20031;-83
2022/09/21 14:41:47;;;;;;;0.20;0.10;;;;;;;;;;6254025;22;20000;-83
2022/09/21 14:44:21;;;;;;;6.47;5.13;;;;;;;;;;6254000;23;20036;-83
2022/09/21 14:46:53;;;;;;;0.20;0.20;;;;;;;;;;6252646;22;20000;-83
2022/09/21 14:49:20;;;;;;;0.10;0.10;;;;;;;;;;6255027;22;20007;-84
2022/09/21 14:51:50;;;;;;;7.22;6.75;;;;;;;;;;6265265;23;20004;-84
2022/09/21 14:54:22;;;;;;;0.43;0.13;;;;;;;;;;6265530;23;20000;-84
2022/09/21 14:57:07;;;;;;;0.00;0.00;;;;;;;;;;6260487;23;20008;-83
2022/09/21 14:59:40;;;;;;;0.00;0.00;;;;;;;;;;6267190;23;20012;-82
2022/09/21 15:02:19;;;;;;;0.00;0.00;;;;;;;;;;6265927;22;20015;-83
2022/09/21 15:05:04;;;;;;;2.50;2.40;;;;;;;;;;6255370;22;19996;-79
2022/09/21 15:13:27;;;;;;;0.00;0.00;;;;;;;;;;6247332;23;20463;-81
2022/09/21 15:16:00;;;;;;;0.55;0.52;;;;;;;;;;6246606;22;20007;-80
2022/09/21 15:18:26;;;;;;;1.45;0.77;;;;;;;;;;6245580;23;20008;-81